Time;durP1;ratioP1;P1;durP2;ratioP2;P2;SDS_P1;SDS_P2;PMS_P1;PMS_P2;Temp;Humidity;BMP_temperature;BMP_pressure;BME280_temperature;BME280_humidity;BME280_pressure;Samples;Min_cycle;Max_cycle;Signal;HPM_P1;HPM_P2
2024/04/17 00:00:29;;;;;;;;;;;;;;;5.45;100.00;99707.75;5493022;26;19927;-68
2024/04/17 00:02:54;;;;;;;;;;;;;;;5.49;100.00;99705.59;5493085;26;19955;-68
2024/04/17 00:05:20;;;;;;;;;;;;;;;5.44;100.00;99702.63;5464167;26;19931;-67
2024/04/17 00:07:45;;;;;;;;;;;;;;;5.43;100.00;99703.59;5501739;26;19927;-69
2024/04/17 00:10:10;;;;;;;;;;;;;;;5.39;100.00;99708.38;5529067;26;19927;-68
2024/04/17 00:12:36;;;;;;;;;;;;;;;5.37;100.00;99709.50;5525417;26;19934;-67
2024/04/17 00:15:01;;;;;;;;;;;;;;;5.41;100.00;99713.50;5525221;26;19927;-67
2024/04/17 00:17:26;;;;;;;;;;;;;;;5.41;100.00;99713.50;5525432;26;19938;-67
2024/04/17 00:19:52;;;;;;;;;;;;;;;5.44;100.00;99713.19;5525275;26;19995;-69
2024/04/17 00:22:17;;;;;;;;;;;;;;;5.44;100.00;99713.19;5528043;26;19935;-66
2024/04/17 00:24:42;;;;;;;;;;;;;;;5.32;100.00;99725.81;5528892;26;20021;-67
2024/04/17 00:27:07;;;;;;;;;;;;;;;5.25;100.00;99714.22;5530158;26;19995;-67
2024/04/17 00:29:33;;;;;;;;;;;;;;;5.20;100.00;99722.59;5497776;26;19935;-68
2024/04/17 00:31:58;;;;;;;;;;;;;;;5.18;100.00;99713.16;5525544;26;19927;-70
2024/04/17 00:34:23;;;;;;;;;;;;;;;5.17;100.00;99719.41;5492206;26;19996;-68
2024/04/17 00:36:49;;;;;;;;;;;;;;;5.16;100.00;99723.03;5485978;26;19956;-67
2024/04/17 00:39:15;;;;;;;;;;;;;;;5.12;100.00;99726.97;5486144;26;20386;-67
2024/04/17 00:41:40;;;;;;;;;;;;;;;5.17;100.00;99725.53;5489282;26;19928;-68
2024/04/17 00:44:06;;;;;;;;;;;;;;;5.19;100.00;99728.84;5498762;26;19934;-69
2024/04/17 00:46:31;;;;;;;;;;;;;;;5.08;100.00;99728.25;5509317;26;19943;-69
2024/04/17 00:48:57;;;;;;;;;;;;;;;5.00;100.00;99721.13;5524774;25;19973;-68
2024/04/17 00:51:22;;;;;;;;;;;;;;;4.97;100.00;99722.25;5524933;25;19935;-68
2024/04/17 00:53:48;;;;;;;;;;;;;;;4.97;100.00;99721.41;5526053;25;19931;-69
2024/04/17 00:56:13;;;;;;;;;;;;;;;4.96;100.00;99723.22;5523498;26;19928;-68
2024/04/17 00:58:38;;;;;;;;;;;;;;;4.97;100.00;99724.06;5526109;26;20431;-68
2024/04/17 01:01:04;;;;;;;;;;;;;;;4.97;100.00;99727.53;5524902;26;19935;-68
2024/04/17 01:03:29;;;;;;;;;;;;;;;4.98;100.00;99723.06;5524933;25;19934;-69
2024/04/17 01:05:54;;;;;;;;;;;;;;;5.04;100.00;99719.81;5527471;26;19936;-69
2024/04/17 01:08:20;;;;;;;;;;;;;;;5.07;100.00;99732.72;5531564;26;19934;-69
2024/04/17 01:10:45;;;;;;;;;;;;;;;5.11;100.00;99726.13;5496714;26;19931;-68
2024/04/17 01:13:10;;;;;;;;;;;;;;;5.07;100.00;99732.72;5527009;26;20382;-68
2024/04/17 01:15:36;;;;;;;;;;;;;;;4.93;100.00;99725.34;5526525;26;19938;-68
2024/04/17 01:18:02;;;;;;;;;;;;;;;4.88;100.00;99722.31;5526043;26;19939;-68
2024/04/17 01:20:27;;;;;;;;;;;;;;;4.80;100.00;99730.16;5528301;25;20442;-68
2024/04/17 01:22:53;;;;;;;;;;;;;;;4.77;100.00;99733.94;5526293;26;19928;-68
2024/04/17 01:25:18;;;;;;;;;;;;;;;4.59;100.00;99728.63;5527839;25;19927;-68
2024/04/17 01:27:43;;;;;;;;;;;;;;;4.55;100.00;99735.19;5528541;26;19927;-68
2024/04/17 01:30:09;;;;;;;;;;;;;;;4.49;100.00;99742.88;5527943;26;19927;-68
2024/04/17 01:32:34;;;;;;;;;;;;;;;4.35;100.00;99737.13;5527377;25;19932;-67
2024/04/17 01:35:00;;;;;;;;;;;;;;;4.31;100.00;99741.00;5532217;25;19966;-69
2024/04/17 01:37:25;;;;;;;;;;;;;;;4.26;100.00;99745.06;5565194;25;19927;-68
2024/04/17 01:39:52;;;;;;;;;;;;;;;4.20;100.00;99740.41;5564886;25;19937;-69
2024/04/17 01:42:17;;;;;;;;;;;;;;;4.11;100.00;99736.84;5564976;25;19927;-69
2024/04/17 01:44:42;;;;;;;;;;;;;;;4.02;100.00;99746.44;5567202;25;19994;-67
2024/04/17 01:47:08;;;;;;;;;;;;;;;4.03;100.00;99742.81;5567414;25;19926;-69
2024/04/17 01:49:33;;;;;;;;;;;;;;;4.04;100.00;99744.47;5534130;25;19927;-68
2024/04/17 01:51:58;;;;;;;;;;;;;;;4.02;100.00;99746.44;5564707;25;20272;-69
2024/04/17 01:54:24;;;;;;;;;;;;;;;3.92;100.00;99744.81;5564367;25;19927;-67
2024/04/17 01:56:51;;;;;;;;;;;;;;;3.85;100.00;99749.00;5564686;25;20025;-70
2024/04/17 01:59:16;;;;;;;;;;;;;;;3.82;100.00;99747.50;5564762;25;19927;-69
2024/04/17 02:01:42;;;;;;;;;;;;;;;3.76;100.00;99755.97;5565961;25;19937;-67
2024/04/17 02:04:07;;;;;;;;;;;;;;;3.74;100.00;99760.53;5564505;25;19927;-69
2024/04/17 02:06:32;;;;;;;;;;;;;;;3.78;100.00;99761.94;5564207;25;20289;-69
2024/04/17 02:08:58;;;;;;;;;;;;;;;3.68;100.00;99759.31;5564279;25;20014;-68
2024/04/17 02:11:23;;;;;;;;;;;;;;;3.50;100.00;99765.47;5564418;25;19939;-71
2024/04/17 02:13:49;;;;;;;;;;;;;;;3.45;100.00;99767.66;5564029;25;19927;-67
2024/04/17 02:16:15;;;;;;;;;;;;;;;3.27;100.00;99763.13;5534180;25;19994;-69
2024/04/17 02:18:40;;;;;;;;;;;;;;;3.19;100.00;99772.72;5564465;25;19935;-67
2024/04/17 02:21:06;;;;;;;;;;;;;;;2.96;100.00;99766.91;5564122;25;19934;-69
2024/04/17 02:23:31;;;;;;;;;;;;;;;2.96;100.00;99766.91;5564136;25;19934;-66
2024/04/17 02:25:56;;;;;;;;;;;;;;;2.89;100.00;99764.00;5530933;25;19998;-70
2024/04/17 02:28:22;;;;;;;;;;;;;;;2.86;100.00;99763.41;5530728;25;19927;-68
2024/04/17 02:30:47;;;;;;;;;;;;;;;2.83;100.00;99761.88;5531383;25;20003;-68
2024/04/17 02:33:13;;;;;;;;;;;;;;;2.83;100.00;99761.06;5533703;25;20428;-69
2024/04/17 02:35:39;;;;;;;;;;;;;;;2.79;100.00;99760.50;5563672;25;19931;-69
2024/04/17 02:38:06;;;;;;;;;;;;;;;2.80;100.00;99755.09;5563533;25;19938;-71
2024/04/17 02:40:33;;;;;;;;;;;;;;;2.78;100.00;99757.03;5531156;25;19927;-69
2024/04/17 02:43:00;;;;;;;;;;;;;;;2.80;100.00;99760.38;5563585;25;20374;-69
2024/04/17 02:45:25;;;;;;;;;;;;;;;2.88;100.00;99759.66;5563653;25;20002;-72
2024/04/17 02:47:50;;;;;;;;;;;;;;;2.96;100.00;99759.00;5568314;25;19935;-71
2024/04/17 02:50:16;;;;;;;;;;;;;;;2.96;100.00;99764.25;5500890;25;20437;-70
2024/04/17 02:52:41;;;;;;;;;;;;;;;2.95;100.00;99767.88;5532253;25;19934;-70
2024/04/17 02:55:07;;;;;;;;;;;;;;;2.92;100.00;99770.78;5563954;25;19927;-71
2024/04/17 02:57:32;;;;;;;;;;;;;;;2.85;100.00;99775.72;5563433;25;19960;-68
2024/04/17 02:59:57;;;;;;;;;;;;;;;2.75;100.00;99773.09;5563188;25;20003;-68
2024/04/17 03:02:23;;;;;;;;;;;;;;;2.77;100.00;99767.69;5563879;25;19927;-67
2024/04/17 03:04:48;;;;;;;;;;;;;;;2.80;100.00;99770.06;5566990;25;19931;-68
2024/04/17 03:07:13;;;;;;;;;;;;;;;2.75;100.00;99765.22;5567313;25;19995;-69
2024/04/17 03:09:39;;;;;;;;;;;;;;;2.69;100.00;99781.53;5532241;25;19927;-70
2024/04/17 03:12:04;;;;;;;;;;;;;;;2.69;100.00;99786.78;5499651;25;19930;-69
2024/04/17 03:14:30;;;;;;;;;;;;;;;2.65;100.00;99785.41;5530243;25;20006;-69
2024/04/17 03:16:55;;;;;;;;;;;;;;;2.58;100.00;99794.78;5530803;25;20274;-69
2024/04/17 03:19:20;;;;;;;;;;;;;;;2.48;100.00;99794.75;5563803;25;19930;-69
2024/04/17 03:21:46;;;;;;;;;;;;;;;2.37;100.00;99796.69;5566939;25;19933;-67
2024/04/17 03:24:11;;;;;;;;;;;;;;;2.30;100.00;99791.09;5566027;25;19934;-68
2024/04/17 03:26:36;;;;;;;;;;;;;;;2.27;100.00;99798.44;5531139;25;19934;-69
2024/04/17 03:29:02;;;;;;;;;;;;;;;2.18;100.00;99803.53;5563470;25;19935;-71
2024/04/17 03:31:27;;;;;;;;;;;;;;;2.08;100.00;99797.41;5530310;25;19934;-71
2024/04/17 03:33:52;;;;;;;;;;;;;;;2.07;100.00;99801.00;5530532;25;19927;-67
2024/04/17 03:36:18;;;;;;;;;;;;;;;2.05;100.00;99807.34;5533548;25;19957;-68
2024/04/17 03:38:43;;;;;;;;;;;;;;;2.08;100.00;99813.16;5530384;25;20274;-70
2024/04/17 03:41:09;;;;;;;;;;;;;;;2.15;100.00;99819.53;5564558;25;19939;-70
2024/04/17 03:43:35;;;;;;;;;;;;;;;2.25;100.00;99813.50;5566159;25;19967;-68
2024/04/17 03:46:03;;;;;;;;;;;;;;;2.30;100.00;99816.53;5563679;25;20300;-70
2024/04/17 03:48:28;;;;;;;;;;;;;;;2.26;100.00;99815.97;5563960;25;19931;-68
2024/04/17 03:50:53;;;;;;;;;;;;;;;2.15;100.00;99831.84;5571500;25;20228;-70
2024/04/17 03:53:19;;;;;;;;;;;;;;;2.09;100.00;99840.25;5566176;25;19927;-68
2024/04/17 03:55:44;;;;;;;;;;;;;;;1.97;100.00;99836.03;5530050;25;19934;-68
2024/04/17 03:58:09;;;;;;;;;;;;;;;1.88;100.00;99826.31;5562981;25;19994;-69
2024/04/17 04:00:35;;;;;;;;;;;;;;;1.82;100.00;99843.44;5529790;25;19943;-68
2024/04/17 04:03:00;;;;;;;;;;;;;;;1.73;100.00;99844.19;5530855;25;19927;-69
2024/04/17 04:05:25;;;;;;;;;;;;;;;1.76;100.00;99836.06;5562808;25;19927;-68
2024/04/17 04:07:51;;;;;;;;;;;;;;;1.81;100.00;99852.25;5566110;25;20378;-69
2024/04/17 04:10:16;;;;;;;;;;;;;;;1.74;100.00;99853.75;5562699;25;19953;-68
2024/04/17 04:12:41;;;;;;;;;;;;;;;1.65;100.00;99855.31;5563613;25;19927;-69
2024/04/17 04:15:07;;;;;;;;;;;;;;;1.64;100.00;99840.53;5529931;25;19928;-68
2024/04/17 04:17:32;;;;;;;;;;;;;;;1.58;100.00;99854.19;5530157;25;19927;-69
2024/04/17 04:20:00;;;;;;;;;;;;;;;1.67;100.00;99863.06;5562152;25;19927;-69
2024/04/17 04:22:26;;;;;;;;;;;;;;;1.65;100.00;99857.94;5532415;25;20282;-68
2024/04/17 04:24:51;;;;;;;;;;;;;;;1.73;100.00;99857.31;5563286;25;19930;-70
2024/04/17 04:27:17;;;;;;;;;;;;;;;1.79;100.00;99864.69;5529279;25;19984;-67
2024/04/17 04:29:42;;;;;;;;;;;;;;;1.73;100.00;99868.63;5562865;25;19926;-69
2024/04/17 04:32:07;;;;;;;;;;;;;;;1.73;100.00;99865.19;5498520;25;20274;-68
2024/04/17 04:34:33;;;;;;;;;;;;;;;1.69;100.00;99869.03;5559451;25;19933;-69
2024/04/17 04:36:59;;;;;;;;;;;;;;;1.80;100.00;99866.34;5557188;25;19927;-67
2024/04/17 04:39:24;;;;;;;;;;;;;;;1.85;100.00;99870.25;5548006;25;20382;-73
2024/04/17 04:41:53;;;;;;;;;;;;;;;1.86;100.00;99871.91;5496224;25;20022;-71
2024/04/17 04:44:19;;;;;;;;;;;;;;;1.90;100.00;99871.66;5559657;25;20389;-75
2024/04/17 04:46:44;;;;;;;;;;;;;;;1.92;100.00;99878.44;5559668;25;19927;-70
2024/04/17 04:49:09;;;;;;;;;;;;;;;1.85;100.00;99872.88;5528156;25;19982;-69
2024/04/17 04:51:35;;;;;;;;;;;;;;;1.75;100.00;99884.28;5559637;25;19927;-69
2024/04/17 04:54:00;;;;;;;;;;;;;;;1.69;100.00;99877.72;5497640;25;19931;-69
2024/04/17 04:56:25;;;;;;;;;;;;;;;1.61;100.00;99884.59;5527435;25;19930;-67
2024/04/17 04:58:51;;;;;;;;;;;;;;;1.53;100.00;99885.22;5559480;25;19998;-69
2024/04/17 05:01:17;;;;;;;;;;;;;;;1.46;100.00;99884.91;5558738;25;20326;-69
2024/04/17 05:03:43;;;;;;;;;;;;;;;1.44;100.00;99891.19;5544226;25;20425;-71
2024/04/17 05:06:09;;;;;;;;;;;;;;;1.44;100.00;99892.03;5489139;26;19940;-71
2024/04/17 05:08:34;;;;;;;;;;;;;;;1.51;100.00;99887.97;5522859;26;19942;-69
2024/04/17 05:11:00;;;;;;;;;;;;;;;1.53;100.00;99901.81;5523871;25;20390;-71
2024/04/17 05:13:25;;;;;;;;;;;;;;;1.50;100.00;99895.97;5540193;25;20389;-70
2024/04/17 05:15:50;;;;;;;;;;;;;;;1.48;100.00;99903.13;5557572;25;20015;-68
2024/04/17 05:18:16;;;;;;;;;;;;;;;1.33;100.00;99899.97;5541168;25;19933;-69
2024/04/17 05:20:41;;;;;;;;;;;;;;;1.40;100.00;99895.88;5534145;25;19928;-70
2024/04/17 05:23:06;;;;;;;;;;;;;;;1.48;100.00;99903.97;5534393;25;19958;-71
2024/04/17 05:25:32;;;;;;;;;;;;;;;1.48;100.00;99914.47;5524564;26;19946;-68
2024/04/17 05:27:57;;;;;;;;;;;;;;;1.46;100.00;99900.66;5497336;26;19939;-70
2024/04/17 05:30:22;;;;;;;;;;;;;;;1.54;100.00;99900.00;5511829;25;19926;-67
2024/04/17 05:32:48;;;;;;;;;;;;;;;1.65;100.00;99904.38;5532154;25;19938;-70
2024/04/17 05:35:15;;;;;;;;;;;;;;;1.73;100.00;99905.38;5546673;25;19933;-68
2024/04/17 05:37:41;;;;;;;;;;;;;;;1.84;100.00;99902.72;5507173;25;19938;-69
2024/04/17 05:40:07;;;;;;;;;;;;;;;1.83;100.00;99915.97;5488777;25;20481;-69
2024/04/17 05:42:33;;;;;;;;;;;;;;;1.92;100.00;99912.56;5520007;25;19927;-69
2024/04/17 05:44:58;;;;;;;;;;;;;;;2.01;99.20;99917.06;5488386;26;19927;-67
2024/04/17 05:47:24;;;;;;;;;;;;;;;2.04;100.00;99911.56;5527397;25;19976;-69
2024/04/17 05:49:49;;;;;;;;;;;;;;;2.17;99.16;99922.69;5498815;26;20322;-67
2024/04/17 05:52:16;;;;;;;;;;;;;;;2.00;98.25;99915.38;5521280;26;20275;-70
2024/04/17 05:54:42;;;;;;;;;;;;;;;2.02;99.63;99921.34;5523039;26;20367;-69
2024/04/17 05:57:07;;;;;;;;;;;;;;;2.07;98.52;99923.59;5526874;26;19927;-68
2024/04/17 05:59:32;;;;;;;;;;;;;;;2.07;97.56;99923.59;5492377;26;19935;-68
2024/04/17 06:01:58;;;;;;;;;;;;;;;2.04;97.16;99918.63;5524894;26;19927;-71
2024/04/17 06:04:23;;;;;;;;;;;;;;;1.96;96.51;99913.97;5461693;26;20259;-67
2024/04/17 06:06:49;;;;;;;;;;;;;;;1.91;97.98;99921.41;5492272;26;19927;-70
2024/04/17 06:09:14;;;;;;;;;;;;;;;1.91;97.05;99924.03;5461404;26;19932;-67
2024/04/17 06:11:39;;;;;;;;;;;;;;;1.91;97.72;99926.66;5524526;26;19935;-69
2024/04/17 06:14:05;;;;;;;;;;;;;;;1.95;95.93;99932.50;5526669;26;19927;-69
2024/04/17 06:16:30;;;;;;;;;;;;;;;2.00;95.93;99938.19;5524528;26;19928;-68
2024/04/17 06:18:55;;;;;;;;;;;;;;;2.10;94.27;99932.06;5491637;26;20283;-69
2024/04/17 06:21:21;;;;;;;;;;;;;;;2.09;94.16;99935.66;5526674;26;19939;-67
2024/04/17 06:23:46;;;;;;;;;;;;;;;2.07;93.19;99944.63;5497099;26;19935;-70
2024/04/17 06:26:12;;;;;;;;;;;;;;;2.00;92.01;99944.28;5494650;26;20403;-69
2024/04/17 06:28:38;;;;;;;;;;;;;;;2.06;92.50;99940.31;5529857;26;19943;-69
2024/04/17 06:31:03;;;;;;;;;;;;;;;2.13;91.40;99937.06;5536830;25;19927;-69
2024/04/17 06:33:29;;;;;;;;;;;;;;;2.18;91.54;99937.50;5497830;25;20264;-68
2024/04/17 06:35:54;;;;;;;;;;;;;;;2.28;90.98;99942.78;5508675;25;19927;-68
2024/04/17 06:38:21;;;;;;;;;;;;;;;2.45;88.07;99947.47;5511072;25;19999;-69
2024/04/17 06:40:46;;;;;;;;;;;;;;;2.58;86.64;99956.91;5507784;26;20369;-68
2024/04/17 06:43:11;;;;;;;;;;;;;;;2.72;86.67;99951.31;5536154;25;19934;-67
2024/04/17 06:45:37;;;;;;;;;;;;;;;2.97;87.44;99957.94;5550179;25;20363;-67
2024/04/17 06:48:04;;;;;;;;;;;;;;;3.16;83.84;99957.97;5550460;25;19931;-68
2024/04/17 06:50:29;;;;;;;;;;;;;;;3.30;84.37;99952.34;5542814;25;19976;-68
2024/04/17 06:52:55;;;;;;;;;;;;;;;3.30;84.23;99957.59;5543287;25;19931;-67
2024/04/17 06:55:20;;;;;;;;;;;;;;;3.36;83.61;99954.41;5489914;25;19934;-69
2024/04/17 06:57:45;;;;;;;;;;;;;;;3.51;83.25;99968.03;5543129;25;19931;-68
2024/04/17 07:00:11;;;;;;;;;;;;;;;3.57;81.84;99964.84;5520954;25;19927;-68
2024/04/17 07:02:36;;;;;;;;;;;;;;;3.62;81.73;99965.25;5542436;25;20378;-69
2024/04/17 07:05:02;;;;;;;;;;;;;;;3.63;80.64;99966.91;5547743;25;19931;-70
2024/04/17 07:07:27;;;;;;;;;;;;;;;3.73;78.63;99972.19;5545101;25;19981;-69
2024/04/17 07:09:53;;;;;;;;;;;;;;;3.68;78.02;99975.22;5551769;25;19927;-70
2024/04/17 07:12:19;;;;;;;;;;;;;;;3.55;79.19;99990.47;5536233;25;19931;-70
2024/04/17 07:14:45;;;;;;;;;;;;;;;3.28;79.49;99998.16;5512273;25;20378;-69
2024/04/17 07:17:11;;;;;;;;;;;;;;;3.14;79.51;99991.47;5549475;25;19933;-65
2024/04/17 07:19:36;;;;;;;;;;;;;;;3.09;79.09;99994.50;5519903;25;19926;-71
2024/04/17 07:22:02;;;;;;;;;;;;;;;2.88;81.04;99996.34;5541773;25;19939;-66
2024/04/17 07:24:27;;;;;;;;;;;;;;;2.85;81.52;100001.88;5550228;25;20386;-71
2024/04/17 07:26:53;;;;;;;;;;;;;;;2.83;81.18;100003.81;5517441;25;20815;-69
2024/04/17 07:29:18;;;;;;;;;;;;;;;2.96;80.00;99998.34;5547191;25;19933;-69
2024/04/17 07:31:44;;;;;;;;;;;;;;;2.91;80.42;100001.38;5547914;25;19927;-70
2024/04/17 07:34:09;;;;;;;;;;;;;;;2.94;80.75;100003.75;5547804;25;20370;-72
2024/04/17 07:36:35;;;;;;;;;;;;;;;2.90;80.98;100014.66;5536321;25;19995;-70
2024/04/17 07:39:02;;;;;;;;;;;;;;;3.02;80.96;100008.34;5509199;25;19939;-72
2024/04/17 07:41:28;;;;;;;;;;;;;;;3.01;80.88;100018.03;5527385;25;19935;-71
2024/04/17 07:43:55;;;;;;;;;;;;;;;3.19;81.69;100018.25;5525796;26;19976;-69
2024/04/17 07:46:20;;;;;;;;;;;;;;;3.34;80.09;100018.69;5527555;26;20282;-67
2024/04/17 07:48:46;;;;;;;;;;;;;;;3.41;80.78;100032.97;5528874;26;19934;-70
2024/04/17 07:51:11;;;;;;;;;;;;;;;3.51;79.84;100025.13;5525727;26;19934;-69
2024/04/17 07:53:36;;;;;;;;;;;;;;;3.49;78.34;100033.16;5492938;26;19927;-71
2024/04/17 07:56:02;;;;;;;;;;;;;;;3.47;77.16;100045.63;5525980;26;19928;-70
2024/04/17 07:58:27;;;;;;;;;;;;;;;3.57;76.11;100041.19;5525558;26;19934;-69
2024/04/17 08:00:52;;;;;;;;;;;;;;;3.53;75.87;100054.78;5525599;26;19928;-69
2024/04/17 08:03:18;;;;;;;;;;;;;;;3.46;76.61;100056.25;5550430;25;19972;-68
2024/04/17 08:05:43;;;;;;;;;;;;;;;3.43;75.09;100060.81;5518951;25;19927;-69
2024/04/17 08:08:08;;;;;;;;;;;;;;;3.23;75.27;100072.25;5510094;25;19934;-69
2024/04/17 08:10:34;;;;;;;;;;;;;;;3.21;76.38;100073.38;5545793;25;20367;-71
2024/04/17 08:13:13;;;;;;;;;;;;;;;3.22;75.07;100078.50;5534997;25;19927;-71
2024/04/17 08:15:41;;;;;;;;;;;;;;;3.26;76.72;100082.53;5535711;25;20009;-70
2024/04/17 08:18:07;;;;;;;;;;;;;;;3.35;77.66;100084.34;5543408;25;19942;-70
2024/04/17 08:20:32;;;;;;;;;;;;;;;3.56;77.97;100080.81;5555638;25;19931;-69
2024/04/17 08:22:57;;;;;;;;;;;;;;;3.84;76.58;100087.97;5515765;25;19939;-68
2024/04/17 08:25:23;;;;;;;;;;;;;;;3.83;75.67;100083.66;5538185;25;20374;-70
2024/04/17 08:27:48;;;;;;;;;;;;;;;3.72;76.00;100097.75;5539480;25;20355;-71
2024/04/17 08:30:14;;;;;;;;;;;;;;;3.72;74.96;100100.38;5509981;25;20020;-68
2024/04/17 08:32:42;;;;;;;;;;;;;;;3.77;74.54;100089.47;5515641;25;19931;-73
2024/04/17 08:35:07;;;;;;;;;;;;;;;3.71;73.92;100096.09;5552554;25;20023;-69
2024/04/17 08:37:33;;;;;;;;;;;;;;;3.72;73.73;100096.94;5532246;25;20049;-67
2024/04/17 08:40:01;;;;;;;;;;;;;;;3.78;73.46;100093.78;5538645;25;19934;-68
2024/04/17 08:42:28;;;;;;;;;;;;;;;3.77;74.28;100094.75;5545177;25;19996;-71
2024/04/17 08:44:54;;;;;;;;;;;;;;;3.94;72.18;100090.59;5546707;25;19939;-67
2024/04/17 08:47:20;;;;;;;;;;;;;;;3.81;72.06;100092.66;5509544;25;19927;-71
2024/04/17 08:49:46;;;;;;;;;;;;;;;3.93;73.01;100089.75;5544723;25;20012;-67
2024/04/17 08:52:11;;;;;;;;;;;;;;;3.89;73.22;100096.28;5538284;25;19935;-72
2024/04/17 08:54:40;;;;;;;;;;;;;;;3.94;73.56;100096.69;5504146;26;19935;-68
2024/04/17 08:57:06;;;;;;;;;;;;;;;3.93;73.21;100108.22;5537429;25;19932;-70
2024/04/17 08:59:31;;;;;;;;;;;;;;;3.95;75.21;100119.44;5543592;25;19942;-68
2024/04/17 09:01:59;;;;;;;;;;;;;;;4.19;74.90;100120.88;5539819;25;19927;-66
2024/04/17 09:04:27;;;;;;;;;;;;;;;4.22;74.13;100121.44;5542034;25;19931;-67
2024/04/17 09:06:53;;;;;;;;;;;;;;;4.30;72.16;100129.47;5552605;25;19926;-70
2024/04/17 09:09:19;;;;;;;;;;;;;;;4.02;72.19;100135.53;5501906;25;19934;-68
2024/04/17 09:11:45;;;;;;;;;;;;;;;3.90;72.21;100134.81;5514905;25;19931;-69
2024/04/17 09:14:10;;;;;;;;;;;;;;;3.62;74.71;100096.06;5531617;25;19943;-70
2024/04/17 09:16:36;;;;;;;;;;;;;;;3.79;74.11;100134.94;5494359;26;19996;-68
2024/04/17 09:19:01;;;;;;;;;;;;;;;3.78;74.90;100138.56;5521727;25;19949;-69
2024/04/17 09:21:27;;;;;;;;;;;;;;;3.83;75.96;100138.97;5522831;26;20005;-67
2024/04/17 09:23:52;;;;;;;;;;;;;;;3.83;74.11;100146.88;5522118;26;19931;-69
2024/04/17 09:26:18;;;;;;;;;;;;;;;3.71;73.25;100147.94;5492381;26;19935;-70
2024/04/17 09:28:44;;;;;;;;;;;;;;;3.78;72.56;100143.00;5525668;26;19927;-69
2024/04/17 09:31:10;;;;;;;;;;;;;;;3.74;71.86;100152.94;5525658;26;19939;-67
2024/04/17 09:33:43;;;;;;;;;;;;;;;3.78;73.30;100149.09;5524849;26;20367;-71
2024/04/17 09:36:10;;;;;;;;;;;;;;;3.99;72.67;100149.81;5526315;26;19934;-68
2024/04/17 09:38:40;;;;;;;;;;;;;;;4.09;72.22;100151.66;5528469;26;20323;-69
2024/04/17 09:41:05;;;;;;;;;;;;;;;4.08;71.75;100155.25;5525364;26;19928;-72
2024/04/17 09:43:31;;;;;;;;;;;;;;;3.98;70.34;100161.31;5525749;26;19927;-70
2024/04/17 09:46:00;;;;;;;;;;;;;;;3.93;72.07;100171.44;5529176;25;19964;-69
2024/04/17 09:48:27;;;;;;;;;;;;;;;3.86;72.96;100183.47;5498835;25;19927;-70
2024/04/17 09:50:58;;;;;;;;;;;;;;;3.65;72.27;100186.16;5562788;25;19934;-69
2024/04/17 09:53:24;;;;;;;;;;;;;;;3.65;73.22;100193.22;5533543;25;19928;-74
2024/04/17 09:55:50;;;;;;;;;;;;;;;3.68;73.53;100190.34;5463176;26;19998;-67
2024/04/17 09:58:16;;;;;;;;;;;;;;;3.78;71.94;100207.03;5525850;26;19935;-68
2024/04/17 10:00:43;;;;;;;;;;;;;;;3.91;71.71;100198.88;5492434;26;20260;-70
2024/04/17 10:03:09;;;;;;;;;;;;;;;3.93;70.50;100196.94;5524319;26;20325;-67
2024/04/17 10:05:36;;;;;;;;;;;;;;;3.96;71.20;100204.59;5524832;26;19995;-69
2024/04/17 10:08:02;;;;;;;;;;;;;;;4.07;70.15;100201.03;5525755;26;20385;-69
2024/04/17 10:10:27;;;;;;;;;;;;;;;4.24;68.87;100203.00;5527126;26;19927;-67
2024/04/17 10:12:53;;;;;;;;;;;;;;;4.32;69.43;100205.78;5524433;26;19936;-69
2024/04/17 10:15:18;;;;;;;;;;;;;;;4.46;68.47;100218.59;5530598;25;19933;-67
2024/04/17 10:17:44;;;;;;;;;;;;;;;4.19;68.19;100223.66;5565804;25;20384;-66
2024/04/17 10:20:28;;;;;;;;;;;;;;;3.80;68.99;100223.53;5551062;25;19997;-67
2024/04/17 10:23:13;;;;;;;;;;;;;;;3.95;70.08;100232.72;5523850;26;19939;-68
2024/04/17 10:25:45;;;;;;;;;;;;;;;4.06;67.72;100229.19;5525896;26;19963;-67
2024/04/17 10:28:11;;;;;;;;;;;;;;;3.85;66.88;100237.13;5524172;26;20050;-69
2024/04/17 10:30:36;;;;;;;;;;;;;;;3.66;69.61;100229.97;5491863;26;19939;-66
2024/04/17 10:33:02;;;;;;;;;;;;;;;3.65;67.74;100227.47;5492551;26;20278;-67
2024/04/17 10:35:29;;;;;;;;;;;;;;;3.51;68.89;100236.56;5523531;26;19932;-67
2024/04/17 10:37:56;;;;;;;;;;;;;;;3.54;69.28;100240.72;5522749;26;19927;-69
2024/04/17 10:40:21;;;;;;;;;;;;;;;3.70;69.43;100238.44;5527476;26;19934;-71
2024/04/17 10:42:47;;;;;;;;;;;;;;;3.84;69.69;100232.00;5505608;25;19928;-71
2024/04/17 10:45:12;;;;;;;;;;;;;;;4.11;67.66;100234.88;5561671;25;20348;-71
2024/04/17 10:47:37;;;;;;;;;;;;;;;4.31;66.89;100256.84;5559231;25;19934;-71
2024/04/17 10:50:03;;;;;;;;;;;;;;;4.16;67.33;100247.66;5562768;25;19951;-71
2024/04/17 10:52:31;;;;;;;;;;;;;;;3.93;66.69;100258.38;5563442;25;20011;-70
2024/04/17 10:54:57;;;;;;;;;;;;;;;3.68;68.22;100256.16;5562530;25;19927;-72
2024/04/17 10:57:24;;;;;;;;;;;;;;;3.67;68.22;100265.03;5565485;25;19995;-70
2024/04/17 10:59:50;;;;;;;;;;;;;;;3.76;67.52;100269.53;5566264;25;19954;-71
2024/04/17 11:02:15;;;;;;;;;;;;;;;3.78;66.96;100274.69;5566523;25;20066;-68
2024/04/17 11:04:44;;;;;;;;;;;;;;;3.89;66.55;100277.22;5566170;25;19927;-68
2024/04/17 11:07:09;;;;;;;;;;;;;;;3.94;68.18;100283.75;5531231;25;20341;-68
2024/04/17 11:09:35;;;;;;;;;;;;;;;3.92;66.33;100277.78;5562893;25;19995;-71
2024/04/17 11:12:00;;;;;;;;;;;;;;;3.93;66.06;100286.53;5531485;25;20250;-71
2024/04/17 11:14:26;;;;;;;;;;;;;;;3.89;67.35;100287.75;5497869;25;19934;-66
2024/04/17 11:16:53;;;;;;;;;;;;;;;3.95;67.85;100293.31;5561273;25;19934;-69
2024/04/17 11:19:18;;;;;;;;;;;;;;;4.12;66.70;100304.22;5560711;25;19956;-69
2024/04/17 11:21:44;;;;;;;;;;;;;;;3.88;65.25;100302.72;5561086;25;19927;-70
2024/04/17 11:24:16;;;;;;;;;;;;;;;3.66;65.69;100303.69;5560855;25;19931;-67
2024/04/17 11:26:42;;;;;;;;;;;;;;;3.58;66.13;100310.59;5529462;25;19927;-70
2024/04/17 11:29:13;;;;;;;;;;;;;;;3.62;66.95;100318.09;5563040;25;19934;-70
2024/04/17 11:31:39;;;;;;;;;;;;;;;3.59;66.30;100307.81;5531055;25;19935;-70
2024/04/17 11:34:04;;;;;;;;;;;;;;;3.57;67.46;100309.75;5560908;25;19933;-72
2024/04/17 11:36:31;;;;;;;;;;;;;;;3.92;66.67;100309.41;5560947;25;20026;-68
2024/04/17 11:38:57;;;;;;;;;;;;;;;3.98;66.04;100306.22;5560773;25;19959;-68
2024/04/17 11:41:22;;;;;;;;;;;;;;;4.13;64.90;100311.16;5525893;25;19927;-69
2024/04/17 11:43:50;;;;;;;;;;;;;;;3.92;63.85;100314.66;5532639;25;20283;-67
2024/04/17 11:46:17;;;;;;;;;;;;;;;3.80;64.57;100313.09;5568308;25;20329;-67
2024/04/17 11:48:43;;;;;;;;;;;;;;;3.86;65.91;100322.25;5558151;25;20002;-70
2024/04/17 11:51:09;;;;;;;;;;;;;;;3.65;65.35;100283.59;5557708;25;19939;-70
2024/04/17 11:53:34;;;;;;;;;;;;;;;3.98;65.87;100319.41;5558771;25;19994;-68
2024/04/17 11:56:00;;;;;;;;;;;;;;;4.04;65.17;100324.16;5527604;25;19943;-68
2024/04/17 11:58:25;;;;;;;;;;;;;;;3.92;63.97;100327.00;5571175;25;20430;-67
2024/04/17 12:00:50;;;;;;;;;;;;;;;3.69;64.55;100323.69;5570476;25;19934;-70
2024/04/17 12:03:15;;;;;;;;;;;;;;;3.68;64.95;100332.53;5527845;25;19927;-71
2024/04/17 12:05:41;;;;;;;;;;;;;;;3.52;65.62;100326.91;5560759;25;19931;-68
2024/04/17 12:08:07;;;;;;;;;;;;;;;3.50;65.79;100332.31;5560214;25;20289;-69
2024/04/17 12:10:32;;;;;;;;;;;;;;;3.43;65.54;100328.47;5560090;25;20002;-67
2024/04/17 12:12:58;;;;;;;;;;;;;;;3.43;66.51;100334.59;5526923;25;19931;-72
2024/04/17 12:15:23;;;;;;;;;;;;;;;3.72;64.84;100344.47;5563138;25;19934;-69
2024/04/17 12:17:48;;;;;;;;;;;;;;;3.76;64.67;100345.06;5560221;25;20374;-69
2024/04/17 12:20:14;;;;;;;;;;;;;;;3.61;64.00;100337.50;5560093;25;20263;-69
2024/04/17 12:22:39;;;;;;;;;;;;;;;3.58;64.02;100337.75;5559775;25;20359;-70
2024/04/17 12:27:48;;;;;;;;;;;;;;;3.50;63.76;100342.00;5560885;25;19926;-70
2024/04/17 12:30:14;;;;;;;;;;;;;;;3.51;63.63;100349.75;5564921;25;20410;-71
2024/04/17 12:32:39;;;;;;;;;;;;;;;3.67;63.73;100351.94;5533367;25;19927;-69
2024/04/17 12:35:07;;;;;;;;;;;;;;;3.96;64.48;100352.13;5561313;25;19927;-69
2024/04/17 12:37:32;;;;;;;;;;;;;;;4.25;62.83;100353.09;5561477;25;19935;-70
2024/04/17 12:39:57;;;;;;;;;;;;;;;4.55;60.98;100354.88;5562911;25;19933;-68
2024/04/17 12:42:26;;;;;;;;;;;;;;;4.76;61.18;100373.28;5561130;25;19939;-69